sensor_id;sensor_type;location;lat;lon;timestamp;pressure;altitude;pressure_sealevel;temperature;humidity
60345;BME280;46188;52.324;8.032;2023-02-04T00:00:12;101799.53;;;5.83;100.00
60345;BME280;46188;52.324;8.032;2023-02-04T00:02:39;101792.66;;;5.85;100.00
60345;BME280;46188;52.324;8.032;2023-02-04T00:05:05;101785.66;;;5.84;100.00
60345;BME280;46188;52.324;8.032;2023-02-04T00:07:31;101791.69;;;5.83;100.00
60345;BME280;46188;52.324;8.032;2023-02-04T00:09:57;101796.91;;;5.83;100.00
60345;BME280;46188;52.324;8.032;2023-02-04T00:12:22;101806.41;;;5.81;100.00
60345;BME280;46188;52.324;8.032;2023-02-04T00:14:47;101818.66;;;5.82;100.00
60345;BME280;46188;52.324;8.032;2023-02-04T00:17:13;101826.59;;;5.84;100.00
60345;BME280;46188;52.324;8.032;2023-02-04T00:19:39;101822.28;;;5.84;100.00
60345;BME280;46188;52.324;8.032;2023-02-04T00:22:04;101823.91;;;5.82;100.00
60345;BME280;46188;52.324;8.032;2023-02-04T00:24:35;101827.19;;;5.78;100.00
60345;BME280;46188;52.324;8.032;2023-02-04T00:27:01;101826.13;;;5.75;100.00
60345;BME280;46188;52.324;8.032;2023-02-04T00:29:27;101842.88;;;5.78;100.00
60345;BME280;46188;52.324;8.032;2023-02-04T00:31:52;101831.59;;;5.79;100.00
60345;BME280;46188;52.324;8.032;2023-02-04T00:34:18;101837.06;;;5.84;100.00
60345;BME280;46188;52.324;8.032;2023-02-04T00:36:44;101850.97;;;5.83;100.00
60345;BME280;46188;52.324;8.032;2023-02-04T00:39:09;101856.22;;;5.83;100.00
60345;BME280;46188;52.324;8.032;2023-02-04T00:41:35;101857.69;;;5.78;100.00
60345;BME280;46188;52.324;8.032;2023-02-04T00:44:00;101855.88;;;5.77;100.00
60345;BME280;46188;52.324;8.032;2023-02-04T00:46:26;101857.75;;;5.79;100.00
60345;BME280;46188;52.324;8.032;2023-02-04T00:48:51;101867.25;;;5.77;100.00
60345;BME280;46188;52.324;8.032;2023-02-04T00:51:16;101870.69;;;5.76;100.00
60345;BME280;46188;52.324;8.032;2023-02-04T00:53:42;101871.50;;;5.75;100.00
60345;BME280;46188;52.324;8.032;2023-02-04T00:56:07;101871.59;;;5.77;100.00
60345;BME280;46188;52.324;8.032;2023-02-04T00:58:33;101875.94;;;5.76;100.00
60345;BME280;46188;52.324;8.032;2023-02-04T01:00:58;101873.41;;;5.78;100.00
60345;BME280;46188;52.324;8.032;2023-02-04T01:03:24;101884.75;;;5.78;100.00
60345;BME280;46188;52.324;8.032;2023-02-04T01:05:49;101886.53;;;5.79;100.00
60345;BME280;46188;52.324;8.032;2023-02-04T01:08:15;101891.75;;;5.79;100.00
60345;BME280;46188;52.324;8.032;2023-02-04T01:10:40;101908.47;;;5.81;100.00
60345;BME280;46188;52.324;8.032;2023-02-04T01:13:05;101904.94;;;5.81;100.00
60345;BME280;46188;52.324;8.032;2023-02-04T01:15:33;101915.47;;;5.82;100.00
60345;BME280;46188;52.324;8.032;2023-02-04T01:17:58;101911.00;;;5.80;100.00
60345;BME280;46188;52.324;8.032;2023-02-04T01:20:24;101911.81;;;5.79;100.00
60345;BME280;46188;52.324;8.032;2023-02-04T01:22:49;101919.56;;;5.77;100.00
60345;BME280;46188;52.324;8.032;2023-02-04T01:25:15;101933.50;;;5.76;100.00
60345;BME280;46188;52.324;8.032;2023-02-04T01:27:41;101937.81;;;5.76;100.00
60345;BME280;46188;52.324;8.032;2023-02-04T01:30:07;101941.34;;;5.76;100.00
60345;BME280;46188;52.324;8.032;2023-02-04T01:32:33;101947.47;;;5.77;100.00
60345;BME280;46188;52.324;8.032;2023-02-04T01:34:58;101948.19;;;5.74;100.00
60345;BME280;46188;52.324;8.032;2023-02-04T01:37:24;101942.16;;;5.75;100.00
60345;BME280;46188;52.324;8.032;2023-02-04T01:39:49;101946.41;;;5.73;100.00
60345;BME280;46188;52.324;8.032;2023-02-04T01:42:15;101949.03;;;5.73;100.00
60345;BME280;46188;52.324;8.032;2023-02-04T01:44:40;101956.88;;;5.73;100.00
60345;BME280;46188;52.324;8.032;2023-02-04T01:47:06;101955.72;;;5.68;100.00
60345;BME280;46188;52.324;8.032;2023-02-04T01:49:32;101953.91;;;5.67;100.00
60345;BME280;46188;52.324;8.032;2023-02-04T01:51:57;101958.88;;;5.62;100.00
60345;BME280;46188;52.324;8.032;2023-02-04T01:54:24;101974.41;;;5.59;100.00
60345;BME280;46188;52.324;8.032;2023-02-04T01:56:50;101959.56;;;5.58;100.00
60345;BME280;46188;52.324;8.032;2023-02-04T01:59:17;101962.25;;;5.60;100.00
60345;BME280;46188;52.324;8.032;2023-02-04T02:01:48;101962.25;;;5.60;100.00
60345;BME280;46188;52.324;8.032;2023-02-04T02:04:19;101973.69;;;5.62;100.00
60345;BME280;46188;52.324;8.032;2023-02-04T02:06:51;101978.13;;;5.63;100.00
60345;BME280;46188;52.324;8.032;2023-02-04T02:09:18;101990.28;;;5.62;100.00
60345;BME280;46188;52.324;8.032;2023-02-04T02:11:43;101985.13;;;5.64;100.00
60345;BME280;46188;52.324;8.032;2023-02-04T02:14:09;101999.19;;;5.66;100.00
60345;BME280;46188;52.324;8.032;2023-02-04T02:16:35;102000.84;;;5.64;100.00
60345;BME280;46188;52.324;8.032;2023-02-04T02:19:01;102002.81;;;5.68;100.00
60345;BME280;46188;52.324;8.032;2023-02-04T02:21:34;102000.13;;;5.66;100.00
60345;BME280;46188;52.324;8.032;2023-02-04T02:26:46;102009.03;;;5.70;100.00
60345;BME280;46188;52.324;8.032;2023-02-04T02:29:12;102015.25;;;5.72;100.00
60345;BME280;46188;52.324;8.032;2023-02-04T02:31:37;102018.75;;;5.72;100.00
60345;BME280;46188;52.324;8.032;2023-02-04T02:34:03;102018.75;;;5.72;100.00
60345;BME280;46188;52.324;8.032;2023-02-04T02:36:28;102016.22;;;5.74;100.00
60345;BME280;46188;52.324;8.032;2023-02-04T02:38:54;102016.31;;;5.76;100.00
60345;BME280;46188;52.324;8.032;2023-02-04T02:41:20;102022.59;;;5.79;100.00
60345;BME280;46188;52.324;8.032;2023-02-04T02:43:45;102017.56;;;5.82;100.00
60345;BME280;46188;52.324;8.032;2023-02-04T02:46:11;102021.00;;;5.81;100.00
60345;BME280;46188;52.324;8.032;2023-02-04T02:48:36;102021.09;;;5.83;100.00
60345;BME280;46188;52.324;8.032;2023-02-04T02:51:02;102023.78;;;5.84;100.00
60345;BME280;46188;52.324;8.032;2023-02-04T02:53:28;102016.09;;;5.87;100.00
60345;BME280;46188;52.324;8.032;2023-02-04T02:55:53;102017.97;;;5.90;100.00
60345;BME280;46188;52.324;8.032;2023-02-04T02:58:30;102021.56;;;5.92;100.00
60345;BME280;46188;52.324;8.032;2023-02-04T03:01:02;102023.31;;;5.91;100.00
60345;BME280;46188;52.324;8.032;2023-02-04T03:03:33;102024.19;;;5.92;100.00
60345;BME280;46188;52.324;8.032;2023-02-04T03:06:05;102035.63;;;5.94;100.00
60345;BME280;46188;52.324;8.032;2023-02-04T03:08:32;102040.88;;;5.94;100.00
60345;BME280;46188;52.324;8.032;2023-02-04T03:10:57;102041.81;;;5.95;100.00
60345;BME280;46188;52.324;8.032;2023-02-04T03:13:23;102040.97;;;5.96;100.00
60345;BME280;46188;52.324;8.032;2023-02-04T03:15:50;102043.56;;;5.96;100.00
60345;BME280;46188;52.324;8.032;2023-02-04T03:18:17;102048.03;;;5.97;100.00
60345;BME280;46188;52.324;8.032;2023-02-04T03:20:44;102060.25;;;5.96;100.00
60345;BME280;46188;52.324;8.032;2023-02-04T03:23:10;102059.41;;;5.97;100.00
60345;BME280;46188;52.324;8.032;2023-02-04T03:25:36;102074.22;;;5.97;100.00
60345;BME280;46188;52.324;8.032;2023-02-04T03:28:02;102072.22;;;5.93;100.00
60345;BME280;46188;52.324;8.032;2023-02-04T03:30:28;102067.00;;;5.93;100.00
60345;BME280;46188;52.324;8.032;2023-02-04T03:32:53;102074.84;;;5.93;100.00
60345;BME280;46188;52.324;8.032;2023-02-04T03:35:19;102080.09;;;5.93;100.00
60345;BME280;46188;52.324;8.032;2023-02-04T03:37:45;102079.06;;;5.90;100.00
60345;BME280;46188;52.324;8.032;2023-02-04T03:40:11;102075.66;;;5.91;100.00
60345;BME280;46188;52.324;8.032;2023-02-04T03:42:37;102085.31;;;5.93;100.00
60345;BME280;46188;52.324;8.032;2023-02-04T03:45:03;102085.31;;;5.93;100.00
60345;BME280;46188;52.324;8.032;2023-02-04T03:47:28;102094.88;;;5.92;100.00
60345;BME280;46188;52.324;8.032;2023-02-04T03:49:54;102095.63;;;5.89;100.00
60345;BME280;46188;52.324;8.032;2023-02-04T03:52:19;102107.69;;;5.87;100.00
60345;BME280;46188;52.324;8.032;2023-02-04T03:54:45;102107.78;;;5.89;100.00
60345;BME280;46188;52.324;8.032;2023-02-04T03:57:11;102106.88;;;5.88;100.00
60345;BME280;46188;52.324;8.032;2023-02-04T03:59:36;102108.69;;;5.89;100.00
60345;BME280;46188;52.324;8.032;2023-02-04T04:02:02;102120.94;;;5.90;100.00
60345;BME280;46188;52.324;8.032;2023-02-04T04:04:28;102118.34;;;5.90;100.00
60345;BME280;46188;52.324;8.032;2023-02-04T04:06:54;102118.34;;;5.90;100.00
60345;BME280;46188;52.324;8.032;2023-02-04T04:09:20;102123.56;;;5.90;100.00
60345;BME280;46188;52.324;8.032;2023-02-04T04:11:45;102115.72;;;5.90;100.00
60345;BME280;46188;52.324;8.032;2023-02-04T04:14:10;102111.31;;;5.89;100.00
60345;BME280;46188;52.324;8.032;2023-02-04T04:16:36;102122.75;;;5.91;100.00
60345;BME280;46188;52.324;8.032;2023-02-04T04:19:01;102122.59;;;5.88;100.00
60345;BME280;46188;52.324;8.032;2023-02-04T04:21:27;102125.84;;;5.84;100.00
60345;BME280;46188;52.324;8.032;2023-02-04T04:23:52;102129.91;;;5.79;100.00
60345;BME280;46188;52.324;8.032;2023-02-04T04:26:18;102129.00;;;5.79;100.00
60345;BME280;46188;52.324;8.032;2023-02-04T04:28:43;102128.91;;;5.77;100.00
60345;BME280;46188;52.324;8.032;2023-02-04T04:31:09;102134.16;;;5.77;100.00
60345;BME280;46188;52.324;8.032;2023-02-04T04:33:34;102142.00;;;5.77;100.00
60345;BME280;46188;52.324;8.032;2023-02-04T04:35:59;102148.06;;;5.76;100.00
60345;BME280;46188;52.324;8.032;2023-02-04T04:38:25;102148.22;;;5.79;100.00
60345;BME280;46188;52.324;8.032;2023-02-04T04:40:50;102141.28;;;5.80;100.00
60345;BME280;46188;52.324;8.032;2023-02-04T04:43:16;102159.78;;;5.83;100.00
60345;BME280;46188;52.324;8.032;2023-02-04T04:45:41;102171.88;;;5.81;100.00
60345;BME280;46188;52.324;8.032;2023-02-04T04:48:07;102182.25;;;5.79;100.00
60345;BME280;46188;52.324;8.032;2023-02-04T04:50:32;102176.69;;;5.73;100.00
60345;BME280;46188;52.324;8.032;2023-02-04T04:52:57;102179.09;;;5.70;100.00
60345;BME280;46188;52.324;8.032;2023-02-04T04:55:23;102186.06;;;5.69;100.00
60345;BME280;46188;52.324;8.032;2023-02-04T04:57:48;102185.06;;;5.67;100.00
60345;BME280;46188;52.324;8.032;2023-02-04T05:00:18;102181.44;;;5.65;100.00
60345;BME280;46188;52.324;8.032;2023-02-04T05:02:45;102183.78;;;5.61;100.00
60345;BME280;46188;52.324;8.032;2023-02-04T05:05:10;102188.84;;;5.58;100.00
60345;BME280;46188;52.324;8.032;2023-02-04T05:07:36;102185.97;;;5.53;100.00
60345;BME280;46188;52.324;8.032;2023-02-04T05:10:02;102196.97;;;5.47;100.00
60345;BME280;46188;52.324;8.032;2023-02-04T05:12:28;102211.56;;;5.44;100.00
60345;BME280;46188;52.324;8.032;2023-02-04T05:14:53;102208.59;;;5.38;100.00
60345;BME280;46188;52.324;8.032;2023-02-04T05:17:19;102207.59;;;5.35;100.00
60345;BME280;46188;52.324;8.032;2023-02-04T05:19:44;102219.78;;;5.35;100.00
60345;BME280;46188;52.324;8.032;2023-02-04T05:22:10;102225.63;;;5.31;100.00
60345;BME280;46188;52.324;8.032;2023-02-04T05:24:35;102232.56;;;5.30;100.00
60345;BME280;46188;52.324;8.032;2023-02-04T05:27:01;102233.28;;;5.28;100.00
60345;BME280;46188;52.324;8.032;2023-02-04T05:29:26;102235.72;;;5.25;100.00
60345;BME280;46188;52.324;8.032;2023-02-04T05:31:52;102233.72;;;5.21;100.00
60345;BME280;46188;52.324;8.032;2023-02-04T05:34:17;102236.25;;;5.19;100.00
60345;BME280;46188;52.324;8.032;2023-02-04T05:36:42;102234.34;;;5.16;100.00
60345;BME280;46188;52.324;8.032;2023-02-04T05:39:08;102238.38;;;5.11;100.00
60345;BME280;46188;52.324;8.032;2023-02-04T05:41:33;102243.59;;;5.11;100.00
60345;BME280;46188;52.324;8.032;2023-02-04T05:43:59;102246.84;;;5.07;100.00
60345;BME280;46188;52.324;8.032;2023-02-04T05:46:24;102248.56;;;5.07;100.00
60345;BME280;46188;52.324;8.032;2023-02-04T05:48:50;102247.53;;;5.05;100.00
60345;BME280;46188;52.324;8.032;2023-02-04T05:51:15;102256.81;;;4.99;100.00
60345;BME280;46188;52.324;8.032;2023-02-04T05:53:41;102261.59;;;4.92;100.00
60345;BME280;46188;52.324;8.032;2023-02-04T05:56:06;102260.19;;;4.84;100.00
60345;BME280;46188;52.324;8.032;2023-02-04T05:58:32;102275.06;;;4.85;100.00
60345;BME280;46188;52.324;8.032;2023-02-04T06:01:01;102274.78;;;4.80;100.00
60345;BME280;46188;52.324;8.032;2023-02-04T06:03:28;102270.94;;;4.75;100.00
60345;BME280;46188;52.324;8.032;2023-02-04T06:05:55;102278.72;;;4.73;100.00
60345;BME280;46188;52.324;8.032;2023-02-04T06:08:21;102276.78;;;4.71;100.00
60345;BME280;46188;52.324;8.032;2023-02-04T06:10:46;102280.09;;;4.68;100.00
60345;BME280;46188;52.324;8.032;2023-02-04T06:13:12;102269.56;;;4.67;100.00
60345;BME280;46188;52.324;8.032;2023-02-04T06:15:37;102273.69;;;4.63;100.00
60345;BME280;46188;52.324;8.032;2023-02-04T06:18:02;102271.69;;;4.59;100.00
60345;BME280;46188;52.324;8.032;2023-02-04T06:20:28;102277.50;;;4.55;100.00
60345;BME280;46188;52.324;8.032;2023-02-04T06:22:53;102285.34;;;4.55;100.00
60345;BME280;46188;52.324;8.032;2023-02-04T06:25:20;102292.97;;;4.52;100.00
60345;BME280;46188;52.324;8.032;2023-02-04T06:27:45;102302.22;;;4.47;100.00
60345;BME280;46188;52.324;8.032;2023-02-04T06:30:11;102310.78;;;4.44;100.00
60345;BME280;46188;52.324;8.032;2023-02-04T06:32:37;102308.75;;;4.40;100.00
60345;BME280;46188;52.324;8.032;2023-02-04T06:35:02;102312.88;;;4.36;100.00
60345;BME280;46188;52.324;8.032;2023-02-04T06:37:28;102324.03;;;4.34;100.00
60345;BME280;46188;52.324;8.032;2023-02-04T06:39:53;102314.19;;;4.30;100.00
60345;BME280;46188;52.324;8.032;2023-02-04T06:42:19;102307.84;;;4.26;100.00
60345;BME280;46188;52.324;8.032;2023-02-04T06:44:45;102312.97;;;4.24;100.00
60345;BME280;46188;52.324;8.032;2023-02-04T06:47:10;102320.81;;;4.24;100.00
60345;BME280;46188;52.324;8.032;2023-02-04T06:49:36;102318.81;;;4.20;100.00
60345;BME280;46188;52.324;8.032;2023-02-04T06:52:01;102311.56;;;4.16;100.00
60345;BME280;46188;52.324;8.032;2023-02-04T06:54:26;102333.34;;;4.17;100.00
60345;BME280;46188;52.324;8.032;2023-02-04T06:56:52;102335.16;;;4.18;100.00
60345;BME280;46188;52.324;8.032;2023-02-04T06:59:17;102341.78;;;4.13;100.00
60345;BME280;46188;52.324;8.032;2023-02-04T07:01:43;102343.28;;;4.09;100.00
60345;BME280;46188;52.324;8.032;2023-02-04T07:04:08;102344.78;;;4.05;100.00
60345;BME280;46188;52.324;8.032;2023-02-04T07:06:33;102342.97;;;4.04;100.00
60345;BME280;46188;52.324;8.032;2023-02-04T07:08:59;102362.75;;;4.01;100.00
60345;BME280;46188;52.324;8.032;2023-02-04T07:11:24;102355.81;;;4.01;100.00
60345;BME280;46188;52.324;8.032;2023-02-04T07:13:50;102364.53;;;4.02;100.00
60345;BME280;46188;52.324;8.032;2023-02-04T07:16:15;102357.41;;;3.99;100.00
60345;BME280;46188;52.324;8.032;2023-02-04T07:18:40;102359.91;;;3.98;100.00
60345;BME280;46188;52.324;8.032;2023-02-04T07:21:06;102366.94;;;3.99;100.00
60345;BME280;46188;52.324;8.032;2023-02-04T07:23:31;102372.47;;;4.03;100.00
60345;BME280;46188;52.324;8.032;2023-02-04T07:25:57;102368.28;;;4.05;100.00
60345;BME280;46188;52.324;8.032;2023-02-04T07:28:23;102380.41;;;4.05;100.00
60345;BME280;46188;52.324;8.032;2023-02-04T07:30:49;102377.09;;;4.07;100.00
60345;BME280;46188;52.324;8.032;2023-02-04T07:33:14;102382.34;;;4.07;100.00
60345;BME280;46188;52.324;8.032;2023-02-04T07:35:40;102388.56;;;4.10;100.00
60345;BME280;46188;52.324;8.032;2023-02-04T07:38:05;102376.50;;;4.12;100.00
60345;BME280;46188;52.324;8.032;2023-02-04T07:40:31;102381.03;;;4.14;100.00
60345;BME280;46188;52.324;8.032;2023-02-04T07:42:57;102388.88;;;4.14;100.00
60345;BME280;46188;52.324;8.032;2023-02-04T07:45:22;102391.47;;;4.14;100.00
60345;BME280;46188;52.324;8.032;2023-02-04T07:47:48;102381.34;;;4.19;100.00
60345;BME280;46188;52.324;8.032;2023-02-04T07:50:13;102402.53;;;4.23;100.00
60345;BME280;46188;52.324;8.032;2023-02-04T07:52:40;102401.06;;;4.27;100.00
60345;BME280;46188;52.324;8.032;2023-02-04T07:55:05;102404.47;;;4.26;100.00
60345;BME280;46188;52.324;8.032;2023-02-04T07:57:31;102409.69;;;4.26;100.00
60345;BME280;46188;52.324;8.032;2023-02-04T07:59:56;102402.84;;;4.28;100.00
60345;BME280;46188;52.324;8.032;2023-02-04T08:02:22;102417.09;;;4.33;100.00
60345;BME280;46188;52.324;8.032;2023-02-04T08:04:47;102421.75;;;4.37;100.00
60345;BME280;46188;52.324;8.032;2023-02-04T08:07:13;102417.53;;;4.39;100.00
60345;BME280;46188;52.324;8.032;2023-02-04T08:09:38;102421.16;;;4.41;100.00
60345;BME280;46188;52.324;8.032;2023-02-04T08:12:04;102425.59;;;4.42;100.00
60345;BME280;46188;52.324;8.032;2023-02-04T08:14:29;102427.41;;;4.43;100.00
60345;BME280;46188;52.324;8.032;2023-02-04T08:16:55;102432.81;;;4.47;100.00
60345;BME280;46188;52.324;8.032;2023-02-04T08:19:21;102426.69;;;4.46;100.00
60345;BME280;46188;52.324;8.032;2023-02-04T08:21:47;102435.72;;;4.51;100.00
60345;BME280;46188;52.324;8.032;2023-02-04T08:24:14;102435.44;;;4.60;100.00
60345;BME280;46188;52.324;8.032;2023-02-04T08:26:40;102442.91;;;4.67;100.00
60345;BME280;46188;52.324;8.032;2023-02-04T08:29:06;102453.34;;;4.67;100.00
60345;BME280;46188;52.324;8.032;2023-02-04T08:31:32;102451.63;;;4.68;100.00
60345;BME280;46188;52.324;8.032;2023-02-04T08:33:57;102446.41;;;4.68;100.00
60345;BME280;46188;52.324;8.032;2023-02-04T08:36:23;102451.53;;;4.66;100.00
60345;BME280;46188;52.324;8.032;2023-02-04T08:38:48;102460.19;;;4.65;100.00
60345;BME280;46188;52.324;8.032;2023-02-04T08:41:13;102461.09;;;4.66;100.00
60345;BME280;46188;52.324;8.032;2023-02-04T08:43:39;102454.97;;;4.65;100.00
60345;BME280;46188;52.324;8.032;2023-02-04T08:46:05;102461.97;;;4.66;100.00
60345;BME280;46188;52.324;8.032;2023-02-04T08:48:30;102466.41;;;4.67;100.00
60345;BME280;46188;52.324;8.032;2023-02-04T08:50:56;102465.41;;;4.65;100.00
60345;BME280;46188;52.324;8.032;2023-02-04T08:53:21;102481.25;;;4.68;100.00
60345;BME280;46188;52.324;8.032;2023-02-04T08:55:47;102485.69;;;4.69;100.00
60345;BME280;46188;52.324;8.032;2023-02-04T08:58:12;102488.53;;;4.72;100.00
60345;BME280;46188;52.324;8.032;2023-02-04T09:00:37;102491.34;;;4.75;100.00
60345;BME280;46188;52.324;8.032;2023-02-04T09:03:03;102495.56;;;4.73;100.00
60345;BME280;46188;52.324;8.032;2023-02-04T09:05:28;102498.97;;;4.72;100.00
60345;BME280;46188;52.324;8.032;2023-02-04T09:07:54;102498.25;;;4.75;100.00
60345;BME280;46188;52.324;8.032;2023-02-04T09:10:19;102492.44;;;4.79;100.00
60345;BME280;46188;52.324;8.032;2023-02-04T09:12:44;102493.75;;;4.86;100.00
60345;BME280;46188;52.324;8.032;2023-02-04T09:15:11;102496.69;;;4.90;100.00
60345;BME280;46188;52.324;8.032;2023-02-04T09:17:37;102504.13;;;4.97;100.00
60345;BME280;46188;52.324;8.032;2023-02-04T09:20:03;102495.81;;;5.03;100.00
60345;BME280;46188;52.324;8.032;2023-02-04T09:22:29;102498.59;;;5.06;100.00
60345;BME280;46188;52.324;8.032;2023-02-04T09:24:55;102502.34;;;5.10;100.00
60345;BME280;46188;52.324;8.032;2023-02-04T09:27:20;102503.13;;;5.09;100.00
60345;BME280;46188;52.324;8.032;2023-02-04T09:29:46;102502.22;;;5.08;100.00
60345;BME280;46188;52.324;8.032;2023-02-04T09:32:11;102506.63;;;5.09;100.00
60345;BME280;46188;52.324;8.032;2023-02-04T09:34:37;102510.25;;;5.11;100.00
60345;BME280;46188;52.324;8.032;2023-02-04T09:37:02;102514.91;;;5.15;100.00
60345;BME280;46188;52.324;8.032;2023-02-04T09:39:28;102506.38;;;5.18;100.00
60345;BME280;46188;52.324;8.032;2023-02-04T09:41:53;102502.03;;;5.18;100.00
60345;BME280;46188;52.324;8.032;2023-02-04T09:44:20;102504.94;;;5.23;100.00
60345;BME280;46188;52.324;8.032;2023-02-04T09:46:52;102500.94;;;5.28;100.00
60345;BME280;46188;52.324;8.032;2023-02-04T09:49:18;102504.63;;;5.32;100.00
60345;BME280;46188;52.324;8.032;2023-02-04T09:51:45;102512.47;;;5.32;100.00
60345;BME280;46188;52.324;8.032;2023-02-04T09:54:17;102522.31;;;5.36;100.00
60345;BME280;46188;52.324;8.032;2023-02-04T09:56:43;102520.44;;;5.33;100.00
60345;BME280;46188;52.324;8.032;2023-02-04T09:59:17;102529.78;;;5.30;100.00
60345;BME280;46188;52.324;8.032;2023-02-04T10:01:43;102533.09;;;5.27;100.00
60345;BME280;46188;52.324;8.032;2023-02-04T10:04:13;102526.34;;;5.31;100.00
60345;BME280;46188;52.324;8.032;2023-02-04T10:06:40;102531.69;;;5.32;100.00
60345;BME280;46188;52.324;8.032;2023-02-04T10:09:10;102530.38;;;5.39;100.00
60345;BME280;46188;52.324;8.032;2023-02-04T10:11:37;102533.41;;;5.45;100.00
60345;BME280;46188;52.324;8.032;2023-02-04T10:14:05;102530.16;;;5.49;100.00
60345;BME280;46188;52.324;8.032;2023-02-04T10:16:33;102545.84;;;5.49;100.00
60345;BME280;46188;52.324;8.032;2023-02-04T10:19:01;102561.66;;;5.51;100.00
60345;BME280;46188;52.324;8.032;2023-02-04T10:21:33;102557.56;;;5.54;100.00
60345;BME280;46188;52.324;8.032;2023-02-04T10:24:03;102558.34;;;5.53;100.00
60345;BME280;46188;52.324;8.032;2023-02-04T10:26:30;102565.41;;;5.54;100.00
60345;BME280;46188;52.324;8.032;2023-02-04T10:29:02;102560.34;;;5.58;100.00
60345;BME280;46188;52.324;8.032;2023-02-04T10:31:39;102553.53;;;5.60;100.00
60345;BME280;46188;52.324;8.032;2023-02-04T10:34:23;102543.44;;;5.66;100.00
60345;BME280;46188;52.324;8.032;2023-02-04T10:36:56;102543.44;;;5.66;100.00
60345;BME280;46188;52.324;8.032;2023-02-04T10:39:26;102536.59;;;5.68;100.00
60345;BME280;46188;52.324;8.032;2023-02-04T10:41:54;102549.06;;;5.72;100.00
60345;BME280;46188;52.324;8.032;2023-02-04T10:44:28;102547.63;;;5.77;100.00
60345;BME280;46188;52.324;8.032;2023-02-04T10:47:01;102546.00;;;5.79;100.00
60345;BME280;46188;52.324;8.032;2023-02-04T10:49:27;102553.97;;;5.81;100.00
60345;BME280;46188;52.324;8.032;2023-02-04T10:51:53;102558.50;;;5.83;100.00
60345;BME280;46188;52.324;8.032;2023-02-04T10:54:32;102557.72;;;5.84;100.00
60345;BME280;46188;52.324;8.032;2023-02-04T10:57:27;102561.03;;;5.82;100.00
60345;BME280;46188;52.324;8.032;2023-02-04T10:59:55;102559.19;;;5.81;100.00
60345;BME280;46188;52.324;8.032;2023-02-04T11:02:48;102557.63;;;5.83;100.00
60345;BME280;46188;52.324;8.032;2023-02-04T11:05:21;102552.47;;;5.84;100.00
60345;BME280;46188;52.324;8.032;2023-02-04T11:07:48;102557.97;;;5.89;100.00
60345;BME280;46188;52.324;8.032;2023-02-04T11:10:21;102555.66;;;5.94;100.00
60345;BME280;46188;52.324;8.032;2023-02-04T11:15:47;102549.88;;;5.98;100.00
60345;BME280;46188;52.324;8.032;2023-02-04T11:20:46;102563.94;;;6.00;100.00
60345;BME280;46188;52.324;8.032;2023-02-04T11:23:28;102565.66;;;5.99;100.00
60345;BME280;46188;52.324;8.032;2023-02-04T11:33:49;102571.44;;;6.22;100.00
60345;BME280;46188;52.324;8.032;2023-02-04T11:36:15;102566.28;;;6.23;100.00
60345;BME280;46188;52.324;8.032;2023-02-04T11:38:45;102571.72;;;6.26;100.00
60345;BME280;46188;52.324;8.032;2023-02-04T11:41:30;102563.06;;;6.27;100.00
60345;BME280;46188;52.324;8.032;2023-02-04T11:43:57;102559.41;;;6.25;100.00
60345;BME280;46188;52.324;8.032;2023-02-04T11:46:25;102562.97;;;6.26;100.00
60345;BME280;46188;52.324;8.032;2023-02-04T11:48:53;102566.38;;;6.25;100.00
60345;BME280;46188;52.324;8.032;2023-02-04T11:51:22;102565.38;;;6.23;100.00
60345;BME280;46188;52.324;8.032;2023-02-04T11:53:50;102562.88;;;6.24;100.00
60345;BME280;46188;52.324;8.032;2023-02-04T11:56:17;102561.34;;;6.28;100.00
60345;BME280;46188;52.324;8.032;2023-02-04T11:58:44;102560.19;;;6.38;100.00
60345;BME280;46188;52.324;8.032;2023-02-04T12:01:21;102559.75;;;6.45;100.00
60345;BME280;46188;52.324;8.032;2023-02-04T12:03:55;102556.44;;;6.47;100.00
60345;BME280;46188;52.324;8.032;2023-02-04T12:06:23;102561.31;;;6.56;100.00
60345;BME280;46188;52.324;8.032;2023-02-04T12:08:48;102572.03;;;6.74;100.00
60345;BME280;46188;52.324;8.032;2023-02-04T12:11:25;102569.88;;;6.82;100.00
60345;BME280;46188;52.324;8.032;2023-02-04T12:13:54;102563.69;;;6.81;100.00
60345;BME280;46188;52.324;8.032;2023-02-04T12:16:20;102566.78;;;6.89;100.00
60345;BME280;46188;52.324;8.032;2023-02-04T12:18:46;102564.78;;;7.00;100.00
60345;BME280;46188;52.324;8.032;2023-02-04T12:21:12;102565.25;;;7.08;100.00
60345;BME280;46188;52.324;8.032;2023-02-04T12:23:38;102579.53;;;7.13;100.00
60345;BME280;46188;52.324;8.032;2023-02-04T12:26:04;102575.03;;;7.25;100.00
60345;BME280;46188;52.324;8.032;2023-02-04T12:28:29;102578.53;;;7.41;100.00
60345;BME280;46188;52.324;8.032;2023-02-04T12:30:55;102590.19;;;7.46;100.00
60345;BME280;46188;52.324;8.032;2023-02-04T12:33:21;102583.41;;;7.49;100.00
60345;BME280;46188;52.324;8.032;2023-02-04T12:35:49;102581.75;;;7.66;100.00
60345;BME280;46188;52.324;8.032;2023-02-04T12:38:15;102575.03;;;7.71;100.00
60345;BME280;46188;52.324;8.032;2023-02-04T12:40:40;102579.63;;;7.75;100.00
60345;BME280;46188;52.324;8.032;2023-02-04T12:43:06;102575.09;;;7.88;100.00
60345;BME280;46188;52.324;8.032;2023-02-04T12:45:31;102581.16;;;7.87;100.00
60345;BME280;46188;52.324;8.032;2023-02-04T12:47:57;102574.25;;;7.89;100.00
60345;BME280;46188;52.324;8.032;2023-02-04T12:50:22;102580.47;;;7.91;100.00
60345;BME280;46188;52.324;8.032;2023-02-04T12:52:53;102581.69;;;7.96;100.00
60345;BME280;46188;52.324;8.032;2023-02-04T12:55:20;102579.19;;;7.99;100.00
60345;BME280;46188;52.324;8.032;2023-02-04T12:57:46;102581.81;;;7.99;100.00
60345;BME280;46188;52.324;8.032;2023-02-04T13:00:13;102557.53;;;9.20;100.00
60345;BME280;46188;52.324;8.032;2023-02-04T13:02:39;102553.75;;;10.63;93.52